sensor_id;sensor_type;location;lat;lon;timestamp;temperature;humidity
65036;DHT22;51603;49.300;8.880;2023-04-07T00:01:53;7.00;99.90
65036;DHT22;51603;49.300;8.880;2023-04-07T00:04:19;6.90;99.90
65036;DHT22;51603;49.300;8.880;2023-04-07T00:06:45;6.90;99.90
65036;DHT22;51603;49.300;8.880;2023-04-07T00:09:10;6.90;99.90
65036;DHT22;51603;49.300;8.880;2023-04-07T00:11:36;6.90;99.90
65036;DHT22;51603;49.300;8.880;2023-04-07T00:14:02;6.90;99.90
65036;DHT22;51603;49.300;8.880;2023-04-07T00:16:27;6.80;99.90
65036;DHT22;51603;49.300;8.880;2023-04-07T00:18:53;6.80;99.90
65036;DHT22;51603;49.300;8.880;2023-04-07T00:21:19;6.90;99.90
65036;DHT22;51603;49.300;8.880;2023-04-07T00:23:44;6.90;99.90
65036;DHT22;51603;49.300;8.880;2023-04-07T00:26:11;6.90;99.90
65036;DHT22;51603;49.300;8.880;2023-04-07T00:28:36;6.90;99.90
65036;DHT22;51603;49.300;8.880;2023-04-07T00:31:02;6.80;99.90
65036;DHT22;51603;49.300;8.880;2023-04-07T00:33:27;6.80;99.90
65036;DHT22;51603;49.300;8.880;2023-04-07T00:35:53;6.80;99.90
65036;DHT22;51603;49.300;8.880;2023-04-07T00:38:19;6.80;99.90
65036;DHT22;51603;49.300;8.880;2023-04-07T00:40:44;6.80;99.90
65036;DHT22;51603;49.300;8.880;2023-04-07T00:43:10;6.80;99.90
65036;DHT22;51603;49.300;8.880;2023-04-07T00:45:36;6.80;99.90
65036;DHT22;51603;49.300;8.880;2023-04-07T00:48:02;6.80;99.90
65036;DHT22;51603;49.300;8.880;2023-04-07T00:50:28;6.80;99.90
65036;DHT22;51603;49.300;8.880;2023-04-07T00:52:54;6.80;99.90
65036;DHT22;51603;49.300;8.880;2023-04-07T00:55:21;6.70;99.90
65036;DHT22;51603;49.300;8.880;2023-04-07T00:57:47;6.80;99.90
65036;DHT22;51603;49.300;8.880;2023-04-07T01:00:12;6.80;99.90
65036;DHT22;51603;49.300;8.880;2023-04-07T01:02:47;6.80;99.90
65036;DHT22;51603;49.300;8.880;2023-04-07T01:05:41;6.80;99.90
65036;DHT22;51603;49.300;8.880;2023-04-07T01:08:16;6.80;99.90
65036;DHT22;51603;49.300;8.880;2023-04-07T01:10:50;6.80;99.90
65036;DHT22;51603;49.300;8.880;2023-04-07T01:13:34;6.80;99.90
65036;DHT22;51603;49.300;8.880;2023-04-07T01:16:04;6.70;99.90
65036;DHT22;51603;49.300;8.880;2023-04-07T01:18:34;6.70;99.90
65036;DHT22;51603;49.300;8.880;2023-04-07T01:21:05;6.70;99.90
65036;DHT22;51603;49.300;8.880;2023-04-07T01:26:25;6.70;99.90
65036;DHT22;51603;49.300;8.880;2023-04-07T01:31:48;6.70;99.90
65036;DHT22;51603;49.300;8.880;2023-04-07T01:34:14;6.70;99.90
65036;DHT22;51603;49.300;8.880;2023-04-07T01:36:41;6.70;99.90
65036;DHT22;51603;49.300;8.880;2023-04-07T01:39:08;6.60;99.90
65036;DHT22;51603;49.300;8.880;2023-04-07T01:41:37;6.60;99.90
65036;DHT22;51603;49.300;8.880;2023-04-07T01:44:03;6.60;99.90
65036;DHT22;51603;49.300;8.880;2023-04-07T01:46:29;6.60;99.90
65036;DHT22;51603;49.300;8.880;2023-04-07T01:48:55;6.60;99.90
65036;DHT22;51603;49.300;8.880;2023-04-07T01:51:21;6.60;99.90
65036;DHT22;51603;49.300;8.880;2023-04-07T01:53:48;6.60;99.90
65036;DHT22;51603;49.300;8.880;2023-04-07T01:56:14;6.70;99.90
65036;DHT22;51603;49.300;8.880;2023-04-07T01:58:40;6.70;99.90
65036;DHT22;51603;49.300;8.880;2023-04-07T02:01:05;6.70;99.90
65036;DHT22;51603;49.300;8.880;2023-04-07T02:03:55;6.70;99.90
65036;DHT22;51603;49.300;8.880;2023-04-07T02:06:33;6.70;99.90
65036;DHT22;51603;49.300;8.880;2023-04-07T02:09:06;6.70;99.90
65036;DHT22;51603;49.300;8.880;2023-04-07T02:11:33;6.70;99.90
65036;DHT22;51603;49.300;8.880;2023-04-07T02:14:01;6.70;99.90
65036;DHT22;51603;49.300;8.880;2023-04-07T02:16:30;6.70;99.90
65036;DHT22;51603;49.300;8.880;2023-04-07T02:18:56;6.70;99.90
65036;DHT22;51603;49.300;8.880;2023-04-07T02:21:23;6.70;99.90
65036;DHT22;51603;49.300;8.880;2023-04-07T02:23:50;6.70;99.90
65036;DHT22;51603;49.300;8.880;2023-04-07T02:26:15;6.70;99.90
65036;DHT22;51603;49.300;8.880;2023-04-07T02:28:41;6.70;99.90
65036;DHT22;51603;49.300;8.880;2023-04-07T02:31:07;6.60;99.90
65036;DHT22;51603;49.300;8.880;2023-04-07T02:33:32;6.70;99.90
65036;DHT22;51603;49.300;8.880;2023-04-07T02:35:58;6.60;99.90
65036;DHT22;51603;49.300;8.880;2023-04-07T02:38:23;6.70;99.90
65036;DHT22;51603;49.300;8.880;2023-04-07T02:40:50;6.70;99.90
65036;DHT22;51603;49.300;8.880;2023-04-07T02:43:15;6.70;99.90
65036;DHT22;51603;49.300;8.880;2023-04-07T02:45:42;6.70;99.90
65036;DHT22;51603;49.300;8.880;2023-04-07T02:48:07;6.70;99.90
65036;DHT22;51603;49.300;8.880;2023-04-07T02:50:33;6.60;99.90
65036;DHT22;51603;49.300;8.880;2023-04-07T02:52:58;6.60;99.90
65036;DHT22;51603;49.300;8.880;2023-04-07T02:55:24;6.70;99.90
65036;DHT22;51603;49.300;8.880;2023-04-07T02:57:50;6.60;99.90
65036;DHT22;51603;49.300;8.880;2023-04-07T03:00:16;6.60;99.90
65036;DHT22;51603;49.300;8.880;2023-04-07T03:02:41;6.60;99.90
65036;DHT22;51603;49.300;8.880;2023-04-07T03:05:07;6.60;99.90
65036;DHT22;51603;49.300;8.880;2023-04-07T03:07:33;6.60;99.90
65036;DHT22;51603;49.300;8.880;2023-04-07T03:09:59;6.60;99.90
65036;DHT22;51603;49.300;8.880;2023-04-07T03:12:24;6.60;99.90
65036;DHT22;51603;49.300;8.880;2023-04-07T03:14:50;6.60;99.90
65036;DHT22;51603;49.300;8.880;2023-04-07T03:17:16;6.60;99.90
65036;DHT22;51603;49.300;8.880;2023-04-07T03:19:41;6.60;99.90
65036;DHT22;51603;49.300;8.880;2023-04-07T03:22:07;6.60;99.90
65036;DHT22;51603;49.300;8.880;2023-04-07T03:24:32;6.60;99.90
65036;DHT22;51603;49.300;8.880;2023-04-07T03:26:58;6.60;99.90
65036;DHT22;51603;49.300;8.880;2023-04-07T03:29:23;6.60;99.90
65036;DHT22;51603;49.300;8.880;2023-04-07T03:31:49;6.60;99.90
65036;DHT22;51603;49.300;8.880;2023-04-07T03:34:15;6.60;99.90
65036;DHT22;51603;49.300;8.880;2023-04-07T03:36:40;6.60;99.90
65036;DHT22;51603;49.300;8.880;2023-04-07T03:39:06;6.60;99.90
65036;DHT22;51603;49.300;8.880;2023-04-07T03:41:31;6.60;99.90
65036;DHT22;51603;49.300;8.880;2023-04-07T03:43:57;6.60;99.90
65036;DHT22;51603;49.300;8.880;2023-04-07T03:46:22;6.60;99.90
65036;DHT22;51603;49.300;8.880;2023-04-07T03:48:51;6.60;99.90
65036;DHT22;51603;49.300;8.880;2023-04-07T03:51:17;6.60;99.90
65036;DHT22;51603;49.300;8.880;2023-04-07T03:53:42;6.60;99.90
65036;DHT22;51603;49.300;8.880;2023-04-07T03:56:08;6.60;99.90
65036;DHT22;51603;49.300;8.880;2023-04-07T03:58:34;6.60;99.90
65036;DHT22;51603;49.300;8.880;2023-04-07T04:00:59;6.60;99.90
65036;DHT22;51603;49.300;8.880;2023-04-07T04:03:25;6.60;99.90
65036;DHT22;51603;49.300;8.880;2023-04-07T04:05:51;6.60;99.90
65036;DHT22;51603;49.300;8.880;2023-04-07T04:08:16;6.60;99.90
65036;DHT22;51603;49.300;8.880;2023-04-07T04:10:42;6.60;99.90
65036;DHT22;51603;49.300;8.880;2023-04-07T04:13:07;6.60;99.90
65036;DHT22;51603;49.300;8.880;2023-04-07T04:15:33;6.60;99.90
65036;DHT22;51603;49.300;8.880;2023-04-07T04:17:58;6.60;99.90
65036;DHT22;51603;49.300;8.880;2023-04-07T04:20:24;6.60;99.90
65036;DHT22;51603;49.300;8.880;2023-04-07T04:22:50;6.60;99.90
65036;DHT22;51603;49.300;8.880;2023-04-07T04:25:16;6.60;99.90
65036;DHT22;51603;49.300;8.880;2023-04-07T04:27:41;6.60;99.90
65036;DHT22;51603;49.300;8.880;2023-04-07T04:30:07;6.60;99.90
65036;DHT22;51603;49.300;8.880;2023-04-07T04:32:33;6.60;99.90
65036;DHT22;51603;49.300;8.880;2023-04-07T04:34:58;6.60;99.90
65036;DHT22;51603;49.300;8.880;2023-04-07T04:37:24;6.60;99.90
65036;DHT22;51603;49.300;8.880;2023-04-07T04:39:50;6.60;99.90
65036;DHT22;51603;49.300;8.880;2023-04-07T04:42:16;6.60;99.90
65036;DHT22;51603;49.300;8.880;2023-04-07T04:44:41;6.60;99.90
65036;DHT22;51603;49.300;8.880;2023-04-07T04:47:07;6.60;99.90
65036;DHT22;51603;49.300;8.880;2023-04-07T04:49:33;6.50;99.90
65036;DHT22;51603;49.300;8.880;2023-04-07T04:51:58;6.50;99.90
65036;DHT22;51603;49.300;8.880;2023-04-07T04:54:27;6.50;99.90
65036;DHT22;51603;49.300;8.880;2023-04-07T04:56:52;6.50;99.90
65036;DHT22;51603;49.300;8.880;2023-04-07T04:59:18;6.50;99.90
65036;DHT22;51603;49.300;8.880;2023-04-07T05:01:43;6.50;99.90
65036;DHT22;51603;49.300;8.880;2023-04-07T05:04:09;6.50;99.90
65036;DHT22;51603;49.300;8.880;2023-04-07T05:06:35;6.50;99.90
65036;DHT22;51603;49.300;8.880;2023-04-07T05:09:00;6.50;99.90
65036;DHT22;51603;49.300;8.880;2023-04-07T05:11:26;6.50;99.90
65036;DHT22;51603;49.300;8.880;2023-04-07T05:13:51;6.50;99.90
65036;DHT22;51603;49.300;8.880;2023-04-07T05:16:17;6.50;99.90
65036;DHT22;51603;49.300;8.880;2023-04-07T05:18:42;6.50;99.90
65036;DHT22;51603;49.300;8.880;2023-04-07T05:21:08;6.50;99.90
65036;DHT22;51603;49.300;8.880;2023-04-07T05:23:34;6.50;99.90
65036;DHT22;51603;49.300;8.880;2023-04-07T05:26:00;6.50;99.90
65036;DHT22;51603;49.300;8.880;2023-04-07T05:28:26;6.50;99.90
65036;DHT22;51603;49.300;8.880;2023-04-07T05:30:51;6.50;99.90
65036;DHT22;51603;49.300;8.880;2023-04-07T05:33:17;6.50;99.90
65036;DHT22;51603;49.300;8.880;2023-04-07T05:35:46;6.50;99.90
65036;DHT22;51603;49.300;8.880;2023-04-07T05:38:12;6.60;99.90
65036;DHT22;51603;49.300;8.880;2023-04-07T05:40:39;6.50;99.90
65036;DHT22;51603;49.300;8.880;2023-04-07T05:43:05;6.60;99.90
65036;DHT22;51603;49.300;8.880;2023-04-07T05:45:31;6.50;99.90
65036;DHT22;51603;49.300;8.880;2023-04-07T05:47:56;6.60;99.90
65036;DHT22;51603;49.300;8.880;2023-04-07T05:50:22;6.60;99.90
65036;DHT22;51603;49.300;8.880;2023-04-07T05:52:47;6.60;99.90
65036;DHT22;51603;49.300;8.880;2023-04-07T05:55:13;6.60;99.90
65036;DHT22;51603;49.300;8.880;2023-04-07T05:57:38;6.60;99.90
65036;DHT22;51603;49.300;8.880;2023-04-07T06:00:05;6.60;99.90
65036;DHT22;51603;49.300;8.880;2023-04-07T06:02:30;6.60;99.90
65036;DHT22;51603;49.300;8.880;2023-04-07T06:04:56;6.60;99.90
65036;DHT22;51603;49.300;8.880;2023-04-07T06:07:21;6.60;99.90
65036;DHT22;51603;49.300;8.880;2023-04-07T06:09:47;6.60;99.90
65036;DHT22;51603;49.300;8.880;2023-04-07T06:12:12;6.60;99.90
65036;DHT22;51603;49.300;8.880;2023-04-07T06:14:39;6.60;99.90
65036;DHT22;51603;49.300;8.880;2023-04-07T06:17:05;6.60;99.90
65036;DHT22;51603;49.300;8.880;2023-04-07T06:19:31;6.70;99.90
65036;DHT22;51603;49.300;8.880;2023-04-07T06:21:57;6.80;99.90
65036;DHT22;51603;49.300;8.880;2023-04-07T06:24:22;6.80;99.90
65036;DHT22;51603;49.300;8.880;2023-04-07T06:26:50;6.90;99.90
65036;DHT22;51603;49.300;8.880;2023-04-07T06:29:16;6.80;99.90
65036;DHT22;51603;49.300;8.880;2023-04-07T06:31:42;6.90;99.90
65036;DHT22;51603;49.300;8.880;2023-04-07T06:34:07;6.90;99.90
65036;DHT22;51603;49.300;8.880;2023-04-07T06:36:33;6.90;99.90
65036;DHT22;51603;49.300;8.880;2023-04-07T06:38:59;6.90;99.90
65036;DHT22;51603;49.300;8.880;2023-04-07T06:41:24;7.10;99.90
65036;DHT22;51603;49.300;8.880;2023-04-07T06:43:50;7.20;99.90
65036;DHT22;51603;49.300;8.880;2023-04-07T06:46:16;7.30;99.90
65036;DHT22;51603;49.300;8.880;2023-04-07T06:48:42;7.40;99.90
65036;DHT22;51603;49.300;8.880;2023-04-07T06:51:08;7.40;99.90
65036;DHT22;51603;49.300;8.880;2023-04-07T06:53:33;7.60;99.90
65036;DHT22;51603;49.300;8.880;2023-04-07T06:56:25;7.60;99.90
65036;DHT22;51603;49.300;8.880;2023-04-07T06:58:51;7.70;99.90
65036;DHT22;51603;49.300;8.880;2023-04-07T07:01:17;7.80;99.90
65036;DHT22;51603;49.300;8.880;2023-04-07T07:03:42;7.90;99.90
65036;DHT22;51603;49.300;8.880;2023-04-07T07:06:08;7.90;99.90
65036;DHT22;51603;49.300;8.880;2023-04-07T07:08:33;7.90;99.90
65036;DHT22;51603;49.300;8.880;2023-04-07T07:10:59;8.00;99.90
65036;DHT22;51603;49.300;8.880;2023-04-07T07:13:25;8.00;99.90
65036;DHT22;51603;49.300;8.880;2023-04-07T07:15:51;8.00;99.90
65036;DHT22;51603;49.300;8.880;2023-04-07T07:18:17;8.10;99.90
65036;DHT22;51603;49.300;8.880;2023-04-07T07:20:43;8.20;99.90
65036;DHT22;51603;49.300;8.880;2023-04-07T07:23:09;8.30;99.90
65036;DHT22;51603;49.300;8.880;2023-04-07T07:25:34;8.40;99.90
65036;DHT22;51603;49.300;8.880;2023-04-07T07:28:00;8.40;99.90
65036;DHT22;51603;49.300;8.880;2023-04-07T07:30:26;8.60;99.90
65036;DHT22;51603;49.300;8.880;2023-04-07T07:32:53;8.80;99.90
65036;DHT22;51603;49.300;8.880;2023-04-07T07:35:19;8.80;99.90
65036;DHT22;51603;49.300;8.880;2023-04-07T07:37:45;8.90;99.90
65036;DHT22;51603;49.300;8.880;2023-04-07T07:40:11;9.10;99.90
65036;DHT22;51603;49.300;8.880;2023-04-07T07:42:37;9.10;99.90
65036;DHT22;51603;49.300;8.880;2023-04-07T07:45:04;9.20;99.90
65036;DHT22;51603;49.300;8.880;2023-04-07T07:47:30;9.40;99.90
65036;DHT22;51603;49.300;8.880;2023-04-07T07:49:55;9.50;99.90
65036;DHT22;51603;49.300;8.880;2023-04-07T07:52:21;9.60;99.90
65036;DHT22;51603;49.300;8.880;2023-04-07T07:54:50;9.70;99.90
65036;DHT22;51603;49.300;8.880;2023-04-07T07:57:16;9.80;99.90
65036;DHT22;51603;49.300;8.880;2023-04-07T07:59:42;9.90;99.90
65036;DHT22;51603;49.300;8.880;2023-04-07T08:02:08;10.10;99.90
65036;DHT22;51603;49.300;8.880;2023-04-07T08:04:35;10.20;99.90
65036;DHT22;51603;49.300;8.880;2023-04-07T08:07:01;10.20;99.90
65036;DHT22;51603;49.300;8.880;2023-04-07T08:09:26;10.20;99.90
65036;DHT22;51603;49.300;8.880;2023-04-07T08:11:52;10.00;99.90
65036;DHT22;51603;49.300;8.880;2023-04-07T08:14:18;9.80;99.90
65036;DHT22;51603;49.300;8.880;2023-04-07T08:16:45;9.90;99.90
65036;DHT22;51603;49.300;8.880;2023-04-07T08:19:11;10.00;99.90
65036;DHT22;51603;49.300;8.880;2023-04-07T08:21:38;10.20;99.90
65036;DHT22;51603;49.300;8.880;2023-04-07T08:24:03;10.40;99.90
65036;DHT22;51603;49.300;8.880;2023-04-07T08:26:29;10.50;99.90
65036;DHT22;51603;49.300;8.880;2023-04-07T08:28:55;10.40;99.90
65036;DHT22;51603;49.300;8.880;2023-04-07T08:31:21;10.30;99.90
65036;DHT22;51603;49.300;8.880;2023-04-07T08:33:46;10.30;99.90
65036;DHT22;51603;49.300;8.880;2023-04-07T08:36:12;10.20;99.90
65036;DHT22;51603;49.300;8.880;2023-04-07T08:38:37;10.30;99.90
65036;DHT22;51603;49.300;8.880;2023-04-07T08:41:32;10.40;99.90
65036;DHT22;51603;49.300;8.880;2023-04-07T08:44:01;10.70;99.90
65036;DHT22;51603;49.300;8.880;2023-04-07T08:46:28;10.80;99.90
65036;DHT22;51603;49.300;8.880;2023-04-07T08:48:55;11.10;99.90
65036;DHT22;51603;49.300;8.880;2023-04-07T08:51:29;11.20;99.90
65036;DHT22;51603;49.300;8.880;2023-04-07T08:54:11;11.20;99.90
65036;DHT22;51603;49.300;8.880;2023-04-07T08:56:38;11.20;99.90
65036;DHT22;51603;49.300;8.880;2023-04-07T08:59:06;11.20;99.90
65036;DHT22;51603;49.300;8.880;2023-04-07T09:01:34;11.30;99.90
65036;DHT22;51603;49.300;8.880;2023-04-07T09:04:02;11.20;99.90
65036;DHT22;51603;49.300;8.880;2023-04-07T09:06:29;11.30;99.90
65036;DHT22;51603;49.300;8.880;2023-04-07T09:08:56;11.20;99.90
65036;DHT22;51603;49.300;8.880;2023-04-07T09:11:22;11.20;99.90
65036;DHT22;51603;49.300;8.880;2023-04-07T09:13:49;11.20;99.90
65036;DHT22;51603;49.300;8.880;2023-04-07T09:16:15;11.30;99.90
65036;DHT22;51603;49.300;8.880;2023-04-07T09:18:41;11.30;99.90
65036;DHT22;51603;49.300;8.880;2023-04-07T09:21:07;11.40;99.90
65036;DHT22;51603;49.300;8.880;2023-04-07T09:23:34;11.50;99.90
65036;DHT22;51603;49.300;8.880;2023-04-07T09:26:19;11.50;99.90
65036;DHT22;51603;49.300;8.880;2023-04-07T09:28:52;11.50;99.90
65036;DHT22;51603;49.300;8.880;2023-04-07T09:31:18;11.90;99.90
65036;DHT22;51603;49.300;8.880;2023-04-07T09:33:48;12.00;99.90
65036;DHT22;51603;49.300;8.880;2023-04-07T09:36:14;11.80;99.90
65036;DHT22;51603;49.300;8.880;2023-04-07T09:38:42;11.90;99.90
65036;DHT22;51603;49.300;8.880;2023-04-07T09:41:13;11.90;99.90
65036;DHT22;51603;49.300;8.880;2023-04-07T09:43:43;12.20;99.90
65036;DHT22;51603;49.300;8.880;2023-04-07T09:46:16;12.70;99.90
65036;DHT22;51603;49.300;8.880;2023-04-07T09:48:44;12.90;99.90
65036;DHT22;51603;49.300;8.880;2023-04-07T09:51:15;13.20;99.90
65036;DHT22;51603;49.300;8.880;2023-04-07T09:53:51;13.00;99.90
65036;DHT22;51603;49.300;8.880;2023-04-07T09:56:19;13.00;99.90
65036;DHT22;51603;49.300;8.880;2023-04-07T09:58:47;12.70;99.90
65036;DHT22;51603;49.300;8.880;2023-04-07T10:01:15;12.60;99.90
65036;DHT22;51603;49.300;8.880;2023-04-07T10:03:42;12.40;99.90
65036;DHT22;51603;49.300;8.880;2023-04-07T10:06:08;12.20;99.90
65036;DHT22;51603;49.300;8.880;2023-04-07T10:08:35;12.20;99.90
65036;DHT22;51603;49.300;8.880;2023-04-07T10:11:03;12.00;99.90
65036;DHT22;51603;49.300;8.880;2023-04-07T10:13:30;11.80;99.90
65036;DHT22;51603;49.300;8.880;2023-04-07T10:15:57;11.70;99.90
65036;DHT22;51603;49.300;8.880;2023-04-07T10:18:28;11.70;99.90
65036;DHT22;51603;49.300;8.880;2023-04-07T10:20:56;11.80;99.90
65036;DHT22;51603;49.300;8.880;2023-04-07T10:23:31;11.80;99.90
65036;DHT22;51603;49.300;8.880;2023-04-07T10:26:00;11.90;99.90
65036;DHT22;51603;49.300;8.880;2023-04-07T10:28:27;11.80;99.90
65036;DHT22;51603;49.300;8.880;2023-04-07T10:30:54;11.90;99.90
65036;DHT22;51603;49.300;8.880;2023-04-07T10:33:57;12.00;99.90
65036;DHT22;51603;49.300;8.880;2023-04-07T10:36:23;11.90;99.90
65036;DHT22;51603;49.300;8.880;2023-04-07T10:41:40;11.80;99.90
65036;DHT22;51603;49.300;8.880;2023-04-07T10:44:07;11.70;99.90
65036;DHT22;51603;49.300;8.880;2023-04-07T10:49:12;11.80;99.90
65036;DHT22;51603;49.300;8.880;2023-04-07T10:54:37;12.20;99.90
65036;DHT22;51603;49.300;8.880;2023-04-07T10:57:09;12.40;99.90
65036;DHT22;51603;49.300;8.880;2023-04-07T10:59:37;12.50;99.90
65036;DHT22;51603;49.300;8.880;2023-04-07T11:04:45;12.80;99.90
65036;DHT22;51603;49.300;8.880;2023-04-07T11:07:12;12.80;99.90
65036;DHT22;51603;49.300;8.880;2023-04-07T11:09:39;13.20;99.90
65036;DHT22;51603;49.300;8.880;2023-04-07T11:12:06;13.50;99.90
65036;DHT22;51603;49.300;8.880;2023-04-07T11:14:32;13.40;99.90
65036;DHT22;51603;49.300;8.880;2023-04-07T11:16:59;13.40;99.90
65036;DHT22;51603;49.300;8.880;2023-04-07T11:19:27;13.70;99.90
65036;DHT22;51603;49.300;8.880;2023-04-07T11:22:12;13.80;99.90
65036;DHT22;51603;49.300;8.880;2023-04-07T11:24:37;13.40;99.90
65036;DHT22;51603;49.300;8.880;2023-04-07T11:27:03;13.60;99.90
65036;DHT22;51603;49.300;8.880;2023-04-07T11:29:30;14.10;99.90
65036;DHT22;51603;49.300;8.880;2023-04-07T11:31:58;14.40;99.60
65036;DHT22;51603;49.300;8.880;2023-04-07T11:34:31;14.30;97.70
65036;DHT22;51603;49.300;8.880;2023-04-07T11:36:58;14.30;99.10
65036;DHT22;51603;49.300;8.880;2023-04-07T11:39:42;14.60;98.80
65036;DHT22;51603;49.300;8.880;2023-04-07T11:42:10;14.80;96.10
65036;DHT22;51603;49.300;8.880;2023-04-07T11:44:46;14.50;96.40
65036;DHT22;51603;49.300;8.880;2023-04-07T11:47:12;14.30;97.50
65036;DHT22;51603;49.300;8.880;2023-04-07T11:49:44;14.10;97.80
65036;DHT22;51603;49.300;8.880;2023-04-07T11:52:10;13.60;97.50
65036;DHT22;51603;49.300;8.880;2023-04-07T11:54:46;13.60;99.90
65036;DHT22;51603;49.300;8.880;2023-04-07T11:57:12;13.60;99.80
65036;DHT22;51603;49.300;8.880;2023-04-07T11:59:39;13.60;99.90
65036;DHT22;51603;49.300;8.880;2023-04-07T12:02:05;13.50;99.40
65036;DHT22;51603;49.300;8.880;2023-04-07T12:04:32;13.50;99.80
65036;DHT22;51603;49.300;8.880;2023-04-07T12:07:10;13.60;99.00
65036;DHT22;51603;49.300;8.880;2023-04-07T12:09:36;13.20;97.30
65036;DHT22;51603;49.300;8.880;2023-04-07T12:12:04;13.20;99.00
65036;DHT22;51603;49.300;8.880;2023-04-07T12:14:31;13.30;97.90
65036;DHT22;51603;49.300;8.880;2023-04-07T12:16:57;13.40;97.80
65036;DHT22;51603;49.300;8.880;2023-04-07T12:19:26;13.30;96.30
65036;DHT22;51603;49.300;8.880;2023-04-07T12:21:53;13.40;98.70
65036;DHT22;51603;49.300;8.880;2023-04-07T12:24:18;13.50;98.90
65036;DHT22;51603;49.300;8.880;2023-04-07T12:26:44;13.50;99.40
65036;DHT22;51603;49.300;8.880;2023-04-07T12:29:10;13.50;99.00
65036;DHT22;51603;49.300;8.880;2023-04-07T12:31:35;13.30;97.20
65036;DHT22;51603;49.300;8.880;2023-04-07T12:34:01;13.20;97.00
65036;DHT22;51603;49.300;8.880;2023-04-07T12:36:27;13.10;94.70
65036;DHT22;51603;49.300;8.880;2023-04-07T12:38:54;13.00;94.70
65036;DHT22;51603;49.300;8.880;2023-04-07T12:41:19;13.00;95.00
65036;DHT22;51603;49.300;8.880;2023-04-07T12:43:45;13.00;96.40
65036;DHT22;51603;49.300;8.880;2023-04-07T12:46:11;12.90;96.10
65036;DHT22;51603;49.300;8.880;2023-04-07T12:48:36;12.80;96.50
65036;DHT22;51603;49.300;8.880;2023-04-07T12:51:02;12.70;97.00
65036;DHT22;51603;49.300;8.880;2023-04-07T12:53:27;12.70;98.10
65036;DHT22;51603;49.300;8.880;2023-04-07T12:55:53;12.70;98.30
65036;DHT22;51603;49.300;8.880;2023-04-07T12:58:19;12.70;98.50
65036;DHT22;51603;49.300;8.880;2023-04-07T13:00:44;12.50;99.60
65036;DHT22;51603;49.300;8.880;2023-04-07T13:03:13;12.40;99.80
65036;DHT22;51603;49.300;8.880;2023-04-07T13:05:39;12.20;99.90
65036;DHT22;51603;49.300;8.880;2023-04-07T13:08:04;12.20;99.90
65036;DHT22;51603;49.300;8.880;2023-04-07T13:10:30;12.00;99.90
65036;DHT22;51603;49.300;8.880;2023-04-07T13:12:55;11.90;99.90
65036;DHT22;51603;49.300;8.880;2023-04-07T13:15:21;11.80;99.90
65036;DHT22;51603;49.300;8.880;2023-04-07T13:17:47;11.80;99.90
65036;DHT22;51603;49.300;8.880;2023-04-07T13:20:12;12.10;99.90
65036;DHT22;51603;49.300;8.880;2023-04-07T13:22:38;12.50;99.90
65036;DHT22;51603;49.300;8.880;2023-04-07T13:25:04;12.80;99.90
65036;DHT22;51603;49.300;8.880;2023-04-07T13:27:30;12.90;99.90
65036;DHT22;51603;49.300;8.880;2023-04-07T13:29:55;12.70;99.90
65036;DHT22;51603;49.300;8.880;2023-04-07T13:32:21;12.80;99.90
65036;DHT22;51603;49.300;8.880;2023-04-07T13:34:47;13.00;99.90
65036;DHT22;51603;49.300;8.880;2023-04-07T14:27:39;12.60;99.90
65036;DHT22;51603;49.300;8.880;2023-04-07T14:30:05;12.40;99.90
65036;DHT22;51603;49.300;8.880;2023-04-07T14:32:31;12.40;99.90
65036;DHT22;51603;49.300;8.880;2023-04-07T14:34:58;12.40;99.90
65036;DHT22;51603;49.300;8.880;2023-04-07T14:37:24;12.50;99.90
65036;DHT22;51603;49.300;8.880;2023-04-07T14:39:51;12.50;99.90
65036;DHT22;51603;49.300;8.880;2023-04-07T14:42:18;12.60;99.90
65036;DHT22;51603;49.300;8.880;2023-04-07T14:44:43;12.60;99.90
65036;DHT22;51603;49.300;8.880;2023-04-07T14:47:09;12.60;99.90
65036;DHT22;51603;49.300;8.880;2023-04-07T14:49:34;12.60;99.90
65036;DHT22;51603;49.300;8.880;2023-04-07T14:52:00;12.70;99.90
65036;DHT22;51603;49.300;8.880;2023-04-07T14:54:25;12.60;99.90
65036;DHT22;51603;49.300;8.880;2023-04-07T14:56:51;12.50;99.90
65036;DHT22;51603;49.300;8.880;2023-04-07T14:59:16;12.60;99.90
65036;DHT22;51603;49.300;8.880;2023-04-07T15:01:42;12.80;99.90
65036;DHT22;51603;49.300;8.880;2023-04-07T15:04:07;12.90;99.90
65036;DHT22;51603;49.300;8.880;2023-04-07T15:06:33;13.20;99.90
65036;DHT22;51603;49.300;8.880;2023-04-07T15:08:58;13.50;99.90
65036;DHT22;51603;49.300;8.880;2023-04-07T15:11:24;14.00;99.90
65036;DHT22;51603;49.300;8.880;2023-04-07T15:13:50;14.10;98.30
65036;DHT22;51603;49.300;8.880;2023-04-07T15:16:16;14.10;97.90
65036;DHT22;51603;49.300;8.880;2023-04-07T15:18:43;13.90;96.00
65036;DHT22;51603;49.300;8.880;2023-04-07T15:21:10;13.90;96.20
65036;DHT22;51603;49.300;8.880;2023-04-07T15:23:37;14.10;96.80
65036;DHT22;51603;49.300;8.880;2023-04-07T15:26:07;14.40;96.20
65036;DHT22;51603;49.300;8.880;2023-04-07T15:28:32;14.60;95.70
65036;DHT22;51603;49.300;8.880;2023-04-07T15:30:59;14.30;95.70
65036;DHT22;51603;49.300;8.880;2023-04-07T15:33:25;14.40;95.40
65036;DHT22;51603;49.300;8.880;2023-04-07T15:35:51;14.40;95.60
65036;DHT22;51603;49.300;8.880;2023-04-07T15:38:17;14.30;94.70
65036;DHT22;51603;49.300;8.880;2023-04-07T15:40:42;14.50;95.30
65036;DHT22;51603;49.300;8.880;2023-04-07T15:43:08;14.50;95.20
65036;DHT22;51603;49.300;8.880;2023-04-07T15:45:42;14.50;94.70
65036;DHT22;51603;49.300;8.880;2023-04-07T15:48:08;14.50;94.20
65036;DHT22;51603;49.300;8.880;2023-04-07T15:50:34;14.70;93.70
65036;DHT22;51603;49.300;8.880;2023-04-07T15:53:01;14.70;93.40
65036;DHT22;51603;49.300;8.880;2023-04-07T15:55:29;14.70;92.70
65036;DHT22;51603;49.300;8.880;2023-04-07T15:57:55;14.70;94.20
65036;DHT22;51603;49.300;8.880;2023-04-07T16:00:20;14.70;94.20
65036;DHT22;51603;49.300;8.880;2023-04-07T16:02:47;14.70;94.60
65036;DHT22;51603;49.300;8.880;2023-04-07T16:05:12;14.60;93.70
65036;DHT22;51603;49.300;8.880;2023-04-07T16:07:37;14.40;93.60
65036;DHT22;51603;49.300;8.880;2023-04-07T16:10:03;14.30;93.60
65036;DHT22;51603;49.300;8.880;2023-04-07T16:12:32;14.20;94.40
65036;DHT22;51603;49.300;8.880;2023-04-07T16:14:59;14.40;95.70
65036;DHT22;51603;49.300;8.880;2023-04-07T16:17:24;14.80;94.70
65036;DHT22;51603;49.300;8.880;2023-04-07T16:19:50;15.00;93.70
65036;DHT22;51603;49.300;8.880;2023-04-07T16:22:15;15.00;93.80
65036;DHT22;51603;49.300;8.880;2023-04-07T16:24:41;15.40;94.00
65036;DHT22;51603;49.300;8.880;2023-04-07T16:27:06;15.50;92.00
65036;DHT22;51603;49.300;8.880;2023-04-07T16:29:32;15.50;92.90
65036;DHT22;51603;49.300;8.880;2023-04-07T16:31:58;15.70;92.60
65036;DHT22;51603;49.300;8.880;2023-04-07T16:34:24;15.60;91.70
65036;DHT22;51603;49.300;8.880;2023-04-07T16:36:49;15.70;92.00
65036;DHT22;51603;49.300;8.880;2023-04-07T16:39:16;15.80;92.20
65036;DHT22;51603;49.300;8.880;2023-04-07T16:41:42;15.90;91.70
65036;DHT22;51603;49.300;8.880;2023-04-07T16:44:08;15.90;91.10